NCAR-RAP Real-Time Weather Data

Output produced by METARs form (26 August 2016  04:54 UTC)
found at http://weather.rap.ucar.edu/surface/
 
Conditions at: KLOU observed 26 August 2016  03:53 UTC
Temperature: 27.2°C (81°F)
Dewpoint: 21.1°C (70°F) [RH = 69%]
Pressure (altimeter): 30.09 inches Hg (1019.0 mb)
[Sea-level pressure: 1018.1 mb]
Winds: calm
Visibility: 10 or more miles (16+ km)
Ceiling: at least 12,000 feet AGL
Clouds: sky clear below 12,000 feet AGL
Present Weather: automated observation with no human augmentation;
there may or may not be significant weather present at this time
KLOU 260353Z AUTO 00000KT 10SM CLR 27/21 A3009 RMK AO2 SLP181 T02720211